sensor_id;sensor_type;location;lat;lon;timestamp;P1;P2;P0
85344;PMS7003;75761;45.604;5.216;2024-01-15T14:05:10;20.25;17.75;11.00
85344;PMS7003;75761;45.604;5.216;2024-01-15T14:07:41;21.75;18.50;12.25
85344;PMS7003;75761;45.604;5.216;2024-01-15T14:10:09;21.00;21.00;12.75
85344;PMS7003;75761;45.604;5.216;2024-01-15T14:12:35;19.75;18.75;13.25
85344;PMS7003;75761;45.604;5.216;2024-01-15T14:15:01;20.75;19.75;13.00
85344;PMS7003;75761;45.604;5.216;2024-01-15T14:17:28;21.25;19.25;13.00
85344;PMS7003;75761;45.604;5.216;2024-01-15T14:19:53;20.00;17.75;13.00
85344;PMS7003;75761;45.604;5.216;2024-01-15T14:22:18;19.25;18.50;11.00
85344;PMS7003;75761;45.604;5.216;2024-01-15T14:24:44;24.75;23.50;13.75
85344;PMS7003;75761;45.604;5.216;2024-01-15T14:27:09;24.75;23.00;17.00
85344;PMS7003;75761;45.604;5.216;2024-01-15T14:29:35;29.00;25.75;18.00
85344;PMS7003;75761;45.604;5.216;2024-01-15T14:32:00;31.75;26.75;17.00
85344;PMS7003;75761;45.604;5.216;2024-01-15T14:34:26;28.50;26.00;17.75
85344;PMS7003;75761;45.604;5.216;2024-01-15T14:36:52;25.75;25.00;18.00
85344;PMS7003;75761;45.604;5.216;2024-01-15T14:39:23;27.50;26.25;17.50
85344;PMS7003;75761;45.604;5.216;2024-01-15T14:41:49;27.75;23.25;16.75
85344;PMS7003;75761;45.604;5.216;2024-01-15T14:44:14;23.75;21.25;17.00
85344;PMS7003;75761;45.604;5.216;2024-01-15T14:46:40;24.75;22.50;15.50
85344;PMS7003;75761;45.604;5.216;2024-01-15T14:49:05;24.00;20.75;16.25
85344;PMS7003;75761;45.604;5.216;2024-01-15T14:51:31;21.00;19.00;14.50
85344;PMS7003;75761;45.604;5.216;2024-01-15T14:53:57;23.50;21.00;15.50
85344;PMS7003;75761;45.604;5.216;2024-01-15T14:56:22;23.25;21.25;15.25
85344;PMS7003;75761;45.604;5.216;2024-01-15T14:58:47;22.75;21.25;15.75
85344;PMS7003;75761;45.604;5.216;2024-01-15T15:01:13;20.75;19.25;13.50
85344;PMS7003;75761;45.604;5.216;2024-01-15T15:03:39;22.00;19.50;12.75
85344;PMS7003;75761;45.604;5.216;2024-01-15T15:06:04;21.00;17.75;12.50
85344;PMS7003;75761;45.604;5.216;2024-01-15T15:08:34;25.50;22.50;13.50
85344;PMS7003;75761;45.604;5.216;2024-01-15T15:11:00;23.25;20.75;12.25
85344;PMS7003;75761;45.604;5.216;2024-01-15T15:13:25;26.00;21.00;14.50
85344;PMS7003;75761;45.604;5.216;2024-01-15T15:15:52;19.00;17.75;12.50
85344;PMS7003;75761;45.604;5.216;2024-01-15T15:18:19;18.25;18.25;12.75
85344;PMS7003;75761;45.604;5.216;2024-01-15T15:20:46;18.75;18.25;13.50
85344;PMS7003;75761;45.604;5.216;2024-01-15T15:23:12;19.75;17.25;11.25
85344;PMS7003;75761;45.604;5.216;2024-01-15T15:25:38;16.50;16.50;13.25
85344;PMS7003;75761;45.604;5.216;2024-01-15T15:28:03;17.50;16.75;10.50
85344;PMS7003;75761;45.604;5.216;2024-01-15T15:30:30;15.75;15.50;11.00
85344;PMS7003;75761;45.604;5.216;2024-01-15T15:32:56;19.25;17.00;13.00
85344;PMS7003;75761;45.604;5.216;2024-01-15T15:35:22;16.50;14.50;9.25
85344;PMS7003;75761;45.604;5.216;2024-01-15T15:37:47;18.25;13.50;8.75
85344;PMS7003;75761;45.604;5.216;2024-01-15T15:40:13;17.25;15.75;12.00
85344;PMS7003;75761;45.604;5.216;2024-01-15T15:42:38;18.75;16.00;10.75
85344;PMS7003;75761;45.604;5.216;2024-01-15T15:45:04;20.00;16.25;10.50
85344;PMS7003;75761;45.604;5.216;2024-01-15T15:47:30;15.25;13.00;8.75
85344;PMS7003;75761;45.604;5.216;2024-01-15T15:49:56;14.75;13.50;10.25
85344;PMS7003;75761;45.604;5.216;2024-01-15T15:52:22;15.50;12.00;10.25
85344;PMS7003;75761;45.604;5.216;2024-01-15T15:54:47;13.25;12.00;9.00
85344;PMS7003;75761;45.604;5.216;2024-01-15T15:57:13;11.25;10.50;8.25
85344;PMS7003;75761;45.604;5.216;2024-01-15T15:59:38;17.00;14.50;11.75
85344;PMS7003;75761;45.604;5.216;2024-01-15T16:02:03;14.00;13.00;8.25
85344;PMS7003;75761;45.604;5.216;2024-01-15T16:04:29;13.25;12.00;8.25
85344;PMS7003;75761;45.604;5.216;2024-01-15T16:06:54;14.25;14.00;10.00
85344;PMS7003;75761;45.604;5.216;2024-01-15T16:09:19;12.50;12.50;8.25
85344;PMS7003;75761;45.604;5.216;2024-01-15T16:11:45;11.25;10.00;6.75
85344;PMS7003;75761;45.604;5.216;2024-01-15T16:14:10;15.75;12.75;8.75
85344;PMS7003;75761;45.604;5.216;2024-01-15T16:16:36;13.25;12.75;9.00
85344;PMS7003;75761;45.604;5.216;2024-01-15T16:19:01;12.75;10.50;7.75
85344;PMS7003;75761;45.604;5.216;2024-01-15T16:21:27;12.50;11.50;8.75
85344;PMS7003;75761;45.604;5.216;2024-01-15T16:23:54;13.25;13.25;10.25
85344;PMS7003;75761;45.604;5.216;2024-01-15T16:26:20;17.75;13.25;10.00
85344;PMS7003;75761;45.604;5.216;2024-01-15T16:28:46;13.25;11.25;7.50
85344;PMS7003;75761;45.604;5.216;2024-01-15T16:31:11;14.00;12.50;9.25
85344;PMS7003;75761;45.604;5.216;2024-01-15T16:33:37;13.50;13.00;9.25
85344;PMS7003;75761;45.604;5.216;2024-01-15T16:36:03;19.75;15.50;9.50
85344;PMS7003;75761;45.604;5.216;2024-01-15T16:38:28;13.50;13.50;10.00
85344;PMS7003;75761;45.604;5.216;2024-01-15T16:40:54;12.25;11.00;7.50
85344;PMS7003;75761;45.604;5.216;2024-01-15T16:43:21;12.25;11.00;9.25
85344;PMS7003;75761;45.604;5.216;2024-01-15T16:45:47;10.75;10.75;8.00
85344;PMS7003;75761;45.604;5.216;2024-01-15T16:48:12;11.75;10.00;7.75
85344;PMS7003;75761;45.604;5.216;2024-01-15T16:50:38;13.75;11.25;7.75
85344;PMS7003;75761;45.604;5.216;2024-01-15T16:53:03;7.50;7.00;5.25
85344;PMS7003;75761;45.604;5.216;2024-01-15T16:55:29;10.00;9.25;7.50
85344;PMS7003;75761;45.604;5.216;2024-01-15T16:57:55;12.75;10.00;7.75
85344;PMS7003;75761;45.604;5.216;2024-01-15T17:00:20;10.25;9.25;7.00
85344;PMS7003;75761;45.604;5.216;2024-01-15T17:02:46;10.00;7.75;6.50
85344;PMS7003;75761;45.604;5.216;2024-01-15T17:05:11;13.50;9.50;7.75
85344;PMS7003;75761;45.604;5.216;2024-01-15T17:07:37;9.00;8.25;5.75
85344;PMS7003;75761;45.604;5.216;2024-01-15T17:10:03;10.00;9.00;7.00
85344;PMS7003;75761;45.604;5.216;2024-01-15T17:12:29;8.00;8.00;6.00
85344;PMS7003;75761;45.604;5.216;2024-01-15T17:14:56;11.00;9.00;6.00
85344;PMS7003;75761;45.604;5.216;2024-01-15T17:17:21;9.75;8.75;7.00
85344;PMS7003;75761;45.604;5.216;2024-01-15T17:19:47;9.50;9.00;7.00
85344;PMS7003;75761;45.604;5.216;2024-01-15T17:22:14;7.00;6.75;5.00
85344;PMS7003;75761;45.604;5.216;2024-01-15T17:24:39;6.00;4.50;3.25
85344;PMS7003;75761;45.604;5.216;2024-01-15T17:27:06;9.00;7.75;5.00
85344;PMS7003;75761;45.604;5.216;2024-01-15T17:29:33;9.50;8.00;6.75
85344;PMS7003;75761;45.604;5.216;2024-01-15T17:31:58;10.00;7.50;6.00
85344;PMS7003;75761;45.604;5.216;2024-01-15T17:34:23;11.00;8.50;6.00
85344;PMS7003;75761;45.604;5.216;2024-01-15T17:36:49;10.25;8.75;6.25
85344;PMS7003;75761;45.604;5.216;2024-01-15T17:39:14;7.50;7.50;5.00
85344;PMS7003;75761;45.604;5.216;2024-01-15T17:41:40;7.50;7.25;5.25
85344;PMS7003;75761;45.604;5.216;2024-01-15T17:44:06;11.50;9.25;5.25
85344;PMS7003;75761;45.604;5.216;2024-01-15T17:46:32;7.75;5.00;4.00
85344;PMS7003;75761;45.604;5.216;2024-01-15T17:48:57;9.00;6.75;5.00
85344;PMS7003;75761;45.604;5.216;2024-01-15T17:51:29;9.00;7.75;5.50
85344;PMS7003;75761;45.604;5.216;2024-01-15T17:53:58;8.25;7.50;4.75
85344;PMS7003;75761;45.604;5.216;2024-01-15T17:56:24;8.25;7.00;4.25
85344;PMS7003;75761;45.604;5.216;2024-01-15T17:58:50;9.75;7.25;4.50
85344;PMS7003;75761;45.604;5.216;2024-01-15T18:01:15;6.50;6.50;3.50
85344;PMS7003;75761;45.604;5.216;2024-01-15T18:03:43;6.75;5.25;4.00
85344;PMS7003;75761;45.604;5.216;2024-01-15T18:06:09;5.25;4.75;3.25
85344;PMS7003;75761;45.604;5.216;2024-01-15T18:08:35;7.00;7.00;4.75
85344;PMS7003;75761;45.604;5.216;2024-01-15T18:11:01;7.00;5.75;4.25
85344;PMS7003;75761;45.604;5.216;2024-01-15T18:13:27;6.00;5.00;4.00
85344;PMS7003;75761;45.604;5.216;2024-01-15T18:15:56;5.00;5.00;4.00
85344;PMS7003;75761;45.604;5.216;2024-01-15T18:18:22;7.00;5.00;3.75
85344;PMS7003;75761;45.604;5.216;2024-01-15T18:20:47;6.75;5.75;4.75
85344;PMS7003;75761;45.604;5.216;2024-01-15T18:23:13;6.75;6.00;4.75
85344;PMS7003;75761;45.604;5.216;2024-01-15T18:25:40;6.75;6.75;5.00
85344;PMS7003;75761;45.604;5.216;2024-01-15T18:28:07;6.75;5.50;4.50
85344;PMS7003;75761;45.604;5.216;2024-01-15T18:30:33;8.25;7.25;4.75
85344;PMS7003;75761;45.604;5.216;2024-01-15T18:32:59;8.00;8.00;5.75
85344;PMS7003;75761;45.604;5.216;2024-01-15T18:35:25;7.00;6.25;4.25
85344;PMS7003;75761;45.604;5.216;2024-01-15T18:37:51;9.75;6.25;4.50
85344;PMS7003;75761;45.604;5.216;2024-01-15T18:40:17;13.50;10.00;6.75
85344;PMS7003;75761;45.604;5.216;2024-01-15T18:42:43;9.50;6.50;4.50
85344;PMS7003;75761;45.604;5.216;2024-01-15T18:45:08;10.50;8.00;5.75
85344;PMS7003;75761;45.604;5.216;2024-01-15T18:47:34;9.25;9.00;6.00
85344;PMS7003;75761;45.604;5.216;2024-01-15T18:49:59;8.50;8.50;6.25
85344;PMS7003;75761;45.604;5.216;2024-01-15T18:52:24;9.50;7.75;5.00
85344;PMS7003;75761;45.604;5.216;2024-01-15T18:54:51;7.00;6.50;4.75
85344;PMS7003;75761;45.604;5.216;2024-01-15T18:57:16;8.25;7.50;5.75
85344;PMS7003;75761;45.604;5.216;2024-01-15T18:59:42;8.75;7.75;6.25
85344;PMS7003;75761;45.604;5.216;2024-01-15T19:02:10;10.50;7.75;5.25
85344;PMS7003;75761;45.604;5.216;2024-01-15T19:04:35;7.50;6.25;4.25
85344;PMS7003;75761;45.604;5.216;2024-01-15T19:07:01;9.00;6.25;5.25
85344;PMS7003;75761;45.604;5.216;2024-01-15T19:09:26;9.75;9.00;6.00
85344;PMS7003;75761;45.604;5.216;2024-01-15T19:11:52;8.50;8.50;5.00
85344;PMS7003;75761;45.604;5.216;2024-01-15T19:14:17;8.25;8.00;5.25
85344;PMS7003;75761;45.604;5.216;2024-01-15T19:16:43;7.00;7.00;5.00
85344;PMS7003;75761;45.604;5.216;2024-01-15T19:19:09;6.00;4.75;3.50
85344;PMS7003;75761;45.604;5.216;2024-01-15T19:21:35;7.50;6.75;4.50
85344;PMS7003;75761;45.604;5.216;2024-01-15T19:24:00;5.25;5.25;3.75
85344;PMS7003;75761;45.604;5.216;2024-01-15T19:26:27;9.50;6.50;4.25
85344;PMS7003;75761;45.604;5.216;2024-01-15T19:28:53;8.25;7.00;4.25
85344;PMS7003;75761;45.604;5.216;2024-01-15T19:31:18;6.50;5.25;4.00
85344;PMS7003;75761;45.604;5.216;2024-01-15T19:33:44;8.25;6.75;4.50
85344;PMS7003;75761;45.604;5.216;2024-01-15T19:36:19;8.25;6.75;5.75
85344;PMS7003;75761;45.604;5.216;2024-01-15T19:38:49;7.00;7.00;4.25
85344;PMS7003;75761;45.604;5.216;2024-01-15T19:41:15;6.75;6.25;4.25
85344;PMS7003;75761;45.604;5.216;2024-01-15T19:43:40;8.50;7.50;5.00
85344;PMS7003;75761;45.604;5.216;2024-01-15T19:46:06;5.50;4.75;4.00
85344;PMS7003;75761;45.604;5.216;2024-01-15T19:48:31;11.50;6.50;3.25
85344;PMS7003;75761;45.604;5.216;2024-01-15T19:50:56;7.25;6.75;4.25
85344;PMS7003;75761;45.604;5.216;2024-01-15T19:53:22;4.50;3.25;2.25
85344;PMS7003;75761;45.604;5.216;2024-01-15T19:55:48;10.00;7.00;3.25
85344;PMS7003;75761;45.604;5.216;2024-01-15T19:58:13;5.00;4.25;2.50
85344;PMS7003;75761;45.604;5.216;2024-01-15T20:00:39;7.25;5.75;4.50
85344;PMS7003;75761;45.604;5.216;2024-01-15T20:03:05;9.00;6.75;4.25
85344;PMS7003;75761;45.604;5.216;2024-01-15T20:05:30;8.00;8.00;6.00
85344;PMS7003;75761;45.604;5.216;2024-01-15T20:07:56;7.00;7.00;4.25
85344;PMS7003;75761;45.604;5.216;2024-01-15T20:10:22;7.25;7.00;5.00
85344;PMS7003;75761;45.604;5.216;2024-01-15T20:12:49;8.25;7.25;5.00
85344;PMS7003;75761;45.604;5.216;2024-01-15T20:15:14;9.75;7.00;4.25
85344;PMS7003;75761;45.604;5.216;2024-01-15T20:17:40;6.75;6.75;4.25
85344;PMS7003;75761;45.604;5.216;2024-01-15T20:20:06;6.25;6.00;4.00
85344;PMS7003;75761;45.604;5.216;2024-01-15T20:22:35;6.00;5.75;4.25
85344;PMS7003;75761;45.604;5.216;2024-01-15T20:25:01;6.50;6.50;4.50
85344;PMS7003;75761;45.604;5.216;2024-01-15T20:27:26;10.75;7.25;5.00
85344;PMS7003;75761;45.604;5.216;2024-01-15T20:29:52;6.25;6.00;4.00
85344;PMS7003;75761;45.604;5.216;2024-01-15T20:32:17;5.25;5.25;3.25
85344;PMS7003;75761;45.604;5.216;2024-01-15T20:34:43;6.75;5.00;3.50
85344;PMS7003;75761;45.604;5.216;2024-01-15T20:37:09;7.50;5.50;3.75
85344;PMS7003;75761;45.604;5.216;2024-01-15T20:39:34;9.00;7.00;5.25
85344;PMS7003;75761;45.604;5.216;2024-01-15T20:41:59;4.25;4.00;4.00
85344;PMS7003;75761;45.604;5.216;2024-01-15T20:44:26;4.00;3.00;2.25
85344;PMS7003;75761;45.604;5.216;2024-01-15T20:46:51;8.50;7.00;4.25
85344;PMS7003;75761;45.604;5.216;2024-01-15T20:49:17;7.50;6.25;4.50
85344;PMS7003;75761;45.604;5.216;2024-01-15T20:51:44;6.50;6.50;5.25
85344;PMS7003;75761;45.604;5.216;2024-01-15T20:54:09;6.50;6.50;4.00
85344;PMS7003;75761;45.604;5.216;2024-01-15T20:56:35;7.25;7.25;5.00
85344;PMS7003;75761;45.604;5.216;2024-01-15T20:59:00;7.50;6.25;5.00
85344;PMS7003;75761;45.604;5.216;2024-01-15T21:01:26;8.00;6.75;5.00
85344;PMS7003;75761;45.604;5.216;2024-01-15T21:03:53;6.00;6.00;4.00
85344;PMS7003;75761;45.604;5.216;2024-01-15T21:06:18;6.00;5.25;3.75
85344;PMS7003;75761;45.604;5.216;2024-01-15T21:08:44;6.00;6.00;4.00
85344;PMS7003;75761;45.604;5.216;2024-01-15T21:11:10;5.25;5.25;3.00
85344;PMS7003;75761;45.604;5.216;2024-01-15T21:13:37;5.50;4.25;3.25
85344;PMS7003;75761;45.604;5.216;2024-01-15T21:16:03;7.00;6.00;3.00
85344;PMS7003;75761;45.604;5.216;2024-01-15T21:18:31;7.00;7.00;5.25
85344;PMS7003;75761;45.604;5.216;2024-01-15T21:20:56;11.75;6.00;3.75
85344;PMS7003;75761;45.604;5.216;2024-01-15T21:23:21;7.25;4.50;3.25
85344;PMS7003;75761;45.604;5.216;2024-01-15T21:25:47;5.25;5.25;3.25
85344;PMS7003;75761;45.604;5.216;2024-01-15T21:28:12;6.25;6.25;4.00
85344;PMS7003;75761;45.604;5.216;2024-01-15T21:30:38;6.00;6.00;3.50
85344;PMS7003;75761;45.604;5.216;2024-01-15T21:33:03;7.25;7.25;4.25
85344;PMS7003;75761;45.604;5.216;2024-01-15T21:35:29;6.25;6.25;4.25
85344;PMS7003;75761;45.604;5.216;2024-01-15T21:37:55;8.00;6.00;3.25
85344;PMS7003;75761;45.604;5.216;2024-01-15T21:40:20;4.75;4.75;3.25
85344;PMS7003;75761;45.604;5.216;2024-01-15T21:42:46;4.50;4.25;3.25
85344;PMS7003;75761;45.604;5.216;2024-01-15T21:45:11;7.25;7.25;4.00
85344;PMS7003;75761;45.604;5.216;2024-01-15T21:47:36;6.50;3.50;3.25
85344;PMS7003;75761;45.604;5.216;2024-01-15T21:50:05;6.75;5.00;3.25
85344;PMS7003;75761;45.604;5.216;2024-01-15T21:52:33;5.00;4.50;3.50
85344;PMS7003;75761;45.604;5.216;2024-01-15T21:54:59;5.75;4.50;3.50
85344;PMS7003;75761;45.604;5.216;2024-01-15T21:57:24;8.00;6.75;4.00
85344;PMS7003;75761;45.604;5.216;2024-01-15T21:59:49;5.25;4.50;3.50
85344;PMS7003;75761;45.604;5.216;2024-01-15T22:02:14;6.50;4.50;3.50
85344;PMS7003;75761;45.604;5.216;2024-01-15T22:04:40;9.50;7.75;4.00
85344;PMS7003;75761;45.604;5.216;2024-01-15T22:07:05;5.75;5.75;4.25
85344;PMS7003;75761;45.604;5.216;2024-01-15T22:09:31;4.50;4.50;3.25
85344;PMS7003;75761;45.604;5.216;2024-01-15T22:11:57;6.00;5.25;4.50
85344;PMS7003;75761;45.604;5.216;2024-01-15T22:14:22;5.25;4.75;3.25
85344;PMS7003;75761;45.604;5.216;2024-01-15T22:16:48;5.75;5.75;4.25
85344;PMS7003;75761;45.604;5.216;2024-01-15T22:19:14;5.25;5.00;3.50
85344;PMS7003;75761;45.604;5.216;2024-01-15T22:21:45;3.50;3.25;2.75
85344;PMS7003;75761;45.604;5.216;2024-01-15T22:24:12;6.50;6.00;4.00
85344;PMS7003;75761;45.604;5.216;2024-01-15T22:26:37;6.75;6.00;4.25
85344;PMS7003;75761;45.604;5.216;2024-01-15T22:29:03;5.75;3.50;2.50
85344;PMS7003;75761;45.604;5.216;2024-01-15T22:31:29;7.00;5.25;4.00
85344;PMS7003;75761;45.604;5.216;2024-01-15T22:33:54;7.25;6.75;4.00
85344;PMS7003;75761;45.604;5.216;2024-01-15T22:36:20;6.00;5.50;3.75
85344;PMS7003;75761;45.604;5.216;2024-01-15T22:38:45;8.00;5.50;3.75
85344;PMS7003;75761;45.604;5.216;2024-01-15T22:41:11;7.00;5.25;4.00
85344;PMS7003;75761;45.604;5.216;2024-01-15T22:43:36;10.75;9.50;5.25
85344;PMS7003;75761;45.604;5.216;2024-01-15T22:46:02;8.50;7.00;5.00
85344;PMS7003;75761;45.604;5.216;2024-01-15T22:48:27;9.75;9.00;5.25
85344;PMS7003;75761;45.604;5.216;2024-01-15T22:50:52;11.00;8.75;6.50
85344;PMS7003;75761;45.604;5.216;2024-01-15T22:53:18;12.50;8.50;6.00
85344;PMS7003;75761;45.604;5.216;2024-01-15T22:55:43;10.00;8.25;5.25
85344;PMS7003;75761;45.604;5.216;2024-01-15T22:58:08;6.50;6.50;5.00
85344;PMS7003;75761;45.604;5.216;2024-01-15T23:00:34;13.75;9.25;6.00
85344;PMS7003;75761;45.604;5.216;2024-01-15T23:02:59;12.25;12.25;7.50
85344;PMS7003;75761;45.604;5.216;2024-01-15T23:05:26;9.50;8.25;5.50
85344;PMS7003;75761;45.604;5.216;2024-01-15T23:07:51;9.50;9.25;6.00
85344;PMS7003;75761;45.604;5.216;2024-01-15T23:10:17;10.00;9.25;6.00
85344;PMS7003;75761;45.604;5.216;2024-01-15T23:12:42;10.75;10.75;6.25
85344;PMS7003;75761;45.604;5.216;2024-01-15T23:15:07;9.75;9.75;6.00
85344;PMS7003;75761;45.604;5.216;2024-01-15T23:17:33;8.00;5.00;4.00
85344;PMS7003;75761;45.604;5.216;2024-01-15T23:19:59;6.75;6.75;4.50
85344;PMS7003;75761;45.604;5.216;2024-01-15T23:22:25;8.25;6.75;5.00
85344;PMS7003;75761;45.604;5.216;2024-01-15T23:24:50;9.00;8.25;5.50
85344;PMS7003;75761;45.604;5.216;2024-01-15T23:27:16;10.25;7.25;4.50
85344;PMS7003;75761;45.604;5.216;2024-01-15T23:29:41;6.25;6.00;4.00
85344;PMS7003;75761;45.604;5.216;2024-01-15T23:32:06;8.00;6.00;4.00
85344;PMS7003;75761;45.604;5.216;2024-01-15T23:34:34;10.25;8.50;6.00
85344;PMS7003;75761;45.604;5.216;2024-01-15T23:37:00;13.00;9.50;6.50
85344;PMS7003;75761;45.604;5.216;2024-01-15T23:39:25;9.50;7.75;5.25
85344;PMS7003;75761;45.604;5.216;2024-01-15T23:41:51;16.50;11.00;7.25
85344;PMS7003;75761;45.604;5.216;2024-01-15T23:44:16;14.75;11.00;7.75
85344;PMS7003;75761;45.604;5.216;2024-01-15T23:46:42;15.00;11.75;7.00
85344;PMS7003;75761;45.604;5.216;2024-01-15T23:49:07;13.25;10.00;6.00
85344;PMS7003;75761;45.604;5.216;2024-01-15T23:51:33;13.50;10.00;6.00
85344;PMS7003;75761;45.604;5.216;2024-01-15T23:53:58;11.75;10.50;7.00
85344;PMS7003;75761;45.604;5.216;2024-01-15T23:56:23;13.75;10.00;6.50
85344;PMS7003;75761;45.604;5.216;2024-01-15T23:58:49;8.00;8.00;5.25
